Time;durP1;ratioP1;P1;durP2;ratioP2;P2;SDS_P1;SDS_P2;PMS_P1;PMS_P2;Temp;Humidity;BMP_temperature;BMP_pressure;BME280_temperature;BME280_humidity;BME280_pressure;Samples;Min_cycle;Max_cycle;Signal;HPM_P1;HPM_P2
2023/10/15 00:00:24;;;;;;;0.82;0.80;;;;;;;;;;4965853;28;20110;-80
2023/10/15 00:02:51;;;;;;;1.42;0.80;;;;;;;;;;4966294;29;20047;-81
2023/10/15 00:05:27;;;;;;;1.77;1.23;;;;;;;;;;4967613;29;20400;-84
2023/10/15 00:07:54;;;;;;;0.93;0.80;;;;;;;;;;4967034;29;20046;-85
2023/10/15 00:10:21;;;;;;;0.68;0.68;;;;;;;;;;4969510;29;20038;-84
2023/10/15 00:12:49;;;;;;;1.30;0.95;;;;;;;;;;4968527;29;20031;-81
2023/10/15 00:15:19;;;;;;;1.10;0.80;;;;;;;;;;4971546;29;20059;-82
2023/10/15 00:17:50;;;;;;;1.00;0.88;;;;;;;;;;4965330;29;20031;-81
2023/10/15 00:20:17;;;;;;;1.05;0.70;;;;;;;;;;4964893;29;20063;-81
2023/10/15 00:22:44;;;;;;;0.95;0.77;;;;;;;;;;4964275;29;20476;-83
2023/10/15 00:25:12;;;;;;;1.15;1.00;;;;;;;;;;4961927;29;20027;-81
2023/10/15 00:27:39;;;;;;;0.98;0.80;;;;;;;;;;4960492;29;20534;-82
2023/10/15 00:30:12;;;;;;;0.80;0.70;;;;;;;;;;4961624;29;20058;-82
2023/10/15 00:32:39;;;;;;;0.82;0.80;;;;;;;;;;4962475;29;20023;-83
2023/10/15 00:35:06;;;;;;;1.75;1.08;;;;;;;;;;4965404;29;20038;-81
2023/10/15 00:37:35;;;;;;;1.60;1.13;;;;;;;;;;4960609;29;20034;-81
2023/10/15 00:40:04;;;;;;;0.77;0.77;;;;;;;;;;4961697;29;20023;-80
2023/10/15 00:42:30;;;;;;;0.68;0.63;;;;;;;;;;4959283;28;20030;-81
2023/10/15 00:44:57;;;;;;;0.73;0.70;;;;;;;;;;4959706;28;20031;-80
2023/10/15 00:47:23;;;;;;;1.05;0.80;;;;;;;;;;4962695;29;20027;-81
2023/10/15 00:49:49;;;;;;;1.17;0.80;;;;;;;;;;4962303;29;20038;-79
2023/10/15 00:52:16;;;;;;;1.02;0.73;;;;;;;;;;4961721;29;20058;-81
2023/10/15 00:54:42;;;;;;;0.88;0.80;;;;;;;;;;4962918;29;20055;-82
2023/10/15 00:57:35;;;;;;;0.90;0.80;;;;;;;;;;4963599;29;20027;-83
2023/10/15 01:00:08;;;;;;;1.27;1.00;;;;;;;;;;4963425;29;20035;-82
2023/10/15 01:02:41;;;;;;;1.13;0.88;;;;;;;;;;4962024;29;20058;-80
2023/10/15 01:05:07;;;;;;;0.75;0.63;;;;;;;;;;4964324;29;20027;-82
2023/10/15 01:07:42;;;;;;;0.88;0.70;;;;;;;;;;4964684;29;20029;-81
2023/10/15 01:10:19;;;;;;;1.25;0.95;;;;;;;;;;4965695;29;20078;-83
2023/10/15 01:12:45;;;;;;;0.98;0.85;;;;;;;;;;4964780;29;20047;-80
2023/10/15 01:15:11;;;;;;;1.05;0.80;;;;;;;;;;4966095;29;20023;-80
2023/10/15 01:17:37;;;;;;;1.73;1.20;;;;;;;;;;4965566;29;20384;-82
2023/10/15 01:20:08;;;;;;;1.50;0.93;;;;;;;;;;4966471;29;20070;-82
2023/10/15 01:22:39;;;;;;;0.63;0.63;;;;;;;;;;4967089;29;20030;-82
2023/10/15 01:25:32;;;;;;;2.15;1.10;;;;;;;;;;4966747;29;20023;-80
2023/10/15 01:28:00;;;;;;;0.60;0.60;;;;;;;;;;4964045;29;20027;-79
2023/10/15 01:30:27;;;;;;;0.70;0.70;;;;;;;;;;4964458;29;20039;-80
2023/10/15 01:32:54;;;;;;;0.52;0.52;;;;;;;;;;4964850;29;20452;-81
2023/10/15 01:35:20;;;;;;;0.90;0.70;;;;;;;;;;4964223;29;20031;-80
2023/10/15 01:38:09;;;;;;;1.10;1.00;;;;;;;;;;4963721;29;20459;-81
2023/10/15 01:40:44;;;;;;;0.95;0.80;;;;;;;;;;4962723;29;20437;-82
2023/10/15 01:43:14;;;;;;;1.05;0.80;;;;;;;;;;4964856;28;20052;-82
2023/10/15 01:45:47;;;;;;;0.90;0.70;;;;;;;;;;4965594;29;20027;-81
2023/10/15 01:48:38;;;;;;;0.60;0.60;;;;;;;;;;4966480;29;20019;-80
2023/10/15 01:51:06;;;;;;;0.95;0.80;;;;;;;;;;4966191;28;20035;-82
2023/10/15 01:53:41;;;;;;;1.30;0.80;;;;;;;;;;4966069;29;20027;-81
2023/10/15 01:56:16;;;;;;;1.40;1.08;;;;;;;;;;4968728;28;20024;-81
2023/10/15 01:58:44;;;;;;;1.05;0.80;;;;;;;;;;4969852;29;20031;-82
2023/10/15 02:01:20;;;;;;;1.25;0.90;;;;;;;;;;4970616;29;20031;-82
2023/10/15 02:03:47;;;;;;;0.63;0.60;;;;;;;;;;4971466;29;20079;-83
2023/10/15 02:06:16;;;;;;;0.95;0.77;;;;;;;;;;4971006;29;20054;-82
2023/10/15 02:08:45;;;;;;;1.17;0.90;;;;;;;;;;4972161;29;20026;-83
2023/10/15 02:11:16;;;;;;;1.52;0.90;;;;;;;;;;4971324;29;20219;-82
2023/10/15 02:13:45;;;;;;;0.82;0.70;;;;;;;;;;4972532;29;20051;-82
2023/10/15 02:16:15;;;;;;;0.98;0.70;;;;;;;;;;4971608;29;20090;-83
2023/10/15 02:18:44;;;;;;;0.90;0.70;;;;;;;;;;4971720;29;20030;-84
2023/10/15 02:21:11;;;;;;;1.00;0.80;;;;;;;;;;4968875;29;20043;-80
2023/10/15 02:23:48;;;;;;;0.68;0.60;;;;;;;;;;4966231;29;20027;-81
2023/10/15 02:26:18;;;;;;;0.93;0.82;;;;;;;;;;4966857;29;20019;-80
2023/10/15 02:28:45;;;;;;;0.95;0.73;;;;;;;;;;4969024;29;20035;-82
2023/10/15 02:31:14;;;;;;;1.80;0.90;;;;;;;;;;4971634;29;20028;-82
2023/10/15 02:33:40;;;;;;;1.23;0.82;;;;;;;;;;4966292;29;20051;-80
2023/10/15 02:36:09;;;;;;;0.95;0.82;;;;;;;;;;4965308;29;20035;-82
2023/10/15 02:38:52;;;;;;;1.70;1.10;;;;;;;;;;4967186;29;20027;-82
2023/10/15 02:41:18;;;;;;;0.90;0.80;;;;;;;;;;4968934;29;20027;-83
2023/10/15 02:44:12;;;;;;;1.33;0.98;;;;;;;;;;4968232;29;20034;-82
2023/10/15 02:49:00;;;;;;;1.02;0.70;;;;;;;;;;4961668;29;20030;-81
2023/10/15 02:51:26;;;;;;;1.10;0.90;;;;;;;;;;4960634;29;20039;-81
2023/10/15 02:53:54;;;;;;;0.70;0.70;;;;;;;;;;4960687;29;20031;-82
2023/10/15 02:56:21;;;;;;;1.02;0.77;;;;;;;;;;4961528;29;20023;-82
2023/10/15 02:58:47;;;;;;;1.30;0.98;;;;;;;;;;4959705;29;20096;-83
2023/10/15 03:01:20;;;;;;;1.10;1.00;;;;;;;;;;4960398;29;20065;-81
2023/10/15 03:03:50;;;;;;;1.80;1.40;;;;;;;;;;4959429;29;20051;-80
2023/10/15 03:06:19;;;;;;;1.52;0.93;;;;;;;;;;4958944;28;20538;-82
2023/10/15 03:08:49;;;;;;;1.08;0.85;;;;;;;;;;4959787;29;20587;-82
2023/10/15 03:11:18;;;;;;;1.00;0.80;;;;;;;;;;4959465;29;20038;-81
2023/10/15 03:13:56;;;;;;;0.65;0.65;;;;;;;;;;4959336;29;20021;-80
2023/10/15 03:16:44;;;;;;;0.82;0.80;;;;;;;;;;4958985;29;20039;-81
2023/10/15 03:19:17;;;;;;;0.98;0.93;;;;;;;;;;4959379;28;20019;-84
2023/10/15 03:21:44;;;;;;;0.90;0.70;;;;;;;;;;4960031;29;20367;-81
2023/10/15 03:24:10;;;;;;;1.00;0.70;;;;;;;;;;4958723;29;20106;-81
2023/10/15 03:26:36;;;;;;;0.98;0.80;;;;;;;;;;4958747;29;20094;-80
2023/10/15 03:29:13;;;;;;;1.35;0.95;;;;;;;;;;4958926;29;20055;-81
2023/10/15 03:31:47;;;;;;;1.95;1.42;;;;;;;;;;4959428;29;20059;-80
2023/10/15 03:34:14;;;;;;;0.70;0.70;;;;;;;;;;4959274;29;20074;-80
2023/10/15 03:36:57;;;;;;;0.82;0.70;;;;;;;;;;4959397;29;20078;-81
2023/10/15 03:42:09;;;;;;;0.80;0.70;;;;;;;;;;4960495;29;20031;-84
2023/10/15 03:44:43;;;;;;;0.77;0.77;;;;;;;;;;4959692;28;20019;-81
2023/10/15 03:47:10;;;;;;;1.25;0.80;;;;;;;;;;4959574;29;20023;-80
2023/10/15 03:49:37;;;;;;;0.75;0.70;;;;;;;;;;4959405;29;20547;-83
2023/10/15 03:52:07;;;;;;;0.70;0.70;;;;;;;;;;4959257;29;20121;-84
2023/10/15 03:54:33;;;;;;;0.98;0.75;;;;;;;;;;4959129;29;20480;-82
2023/10/15 03:57:01;;;;;;;1.35;0.95;;;;;;;;;;4959076;29;20024;-83
2023/10/15 03:59:27;;;;;;;0.70;0.70;;;;;;;;;;4959435;29;20035;-81
2023/10/15 04:01:56;;;;;;;0.68;0.60;;;;;;;;;;4957805;29;20071;-80
2023/10/15 04:04:22;;;;;;;1.77;1.13;;;;;;;;;;4958371;29;20059;-83
2023/10/15 04:06:53;;;;;;;0.63;0.60;;;;;;;;;;4959243;29;20030;-81
2023/10/15 04:09:33;;;;;;;0.98;0.80;;;;;;;;;;4958547;29;20019;-80
2023/10/15 04:11:59;;;;;;;0.95;0.70;;;;;;;;;;4958762;28;20027;-81
2023/10/15 04:14:28;;;;;;;0.90;0.70;;;;;;;;;;4957924;29;20023;-80
2023/10/15 04:16:57;;;;;;;1.17;0.82;;;;;;;;;;4958473;28;20027;-80
2023/10/15 04:19:25;;;;;;;0.70;0.70;;;;;;;;;;4958249;29;20038;-81
2023/10/15 04:21:53;;;;;;;1.95;0.70;;;;;;;;;;4957876;29;20102;-83
2023/10/15 04:24:36;;;;;;;0.85;0.70;;;;;;;;;;4957632;29;20034;-80
2023/10/15 04:27:02;;;;;;;0.80;0.70;;;;;;;;;;4957582;29;20031;-81
2023/10/15 04:29:30;;;;;;;1.48;1.15;;;;;;;;;;4957585;29;20050;-79
2023/10/15 04:32:00;;;;;;;0.90;0.80;;;;;;;;;;4958695;29;20027;-81
2023/10/15 04:34:29;;;;;;;0.80;0.70;;;;;;;;;;4958839;29;20110;-81
2023/10/15 04:37:07;;;;;;;1.10;0.90;;;;;;;;;;4959088;29;20020;-81
2023/10/15 04:39:36;;;;;;;1.30;0.90;;;;;;;;;;4959256;29;20023;-81
2023/10/15 04:42:06;;;;;;;1.23;1.08;;;;;;;;;;4959981;29;20070;-83
2023/10/15 04:44:33;;;;;;;1.00;0.80;;;;;;;;;;4963913;29;20026;-83
2023/10/15 04:47:05;;;;;;;0.70;0.70;;;;;;;;;;4965751;29;20023;-81
2023/10/15 04:49:32;;;;;;;0.95;0.70;;;;;;;;;;4957522;29;20082;-80
2023/10/15 04:51:59;;;;;;;1.33;1.08;;;;;;;;;;4957994;29;20412;-80
2023/10/15 04:54:25;;;;;;;1.45;0.82;;;;;;;;;;4957161;29;20055;-79
2023/10/15 04:56:54;;;;;;;1.25;0.80;;;;;;;;;;4956572;29;20027;-79
2023/10/15 04:59:21;;;;;;;0.70;0.60;;;;;;;;;;4958014;29;20023;-84
2023/10/15 05:01:48;;;;;;;1.10;0.80;;;;;;;;;;4959010;28;20023;-79
2023/10/15 05:04:14;;;;;;;0.77;0.68;;;;;;;;;;4960241;28;20038;-80
2023/10/15 05:06:41;;;;;;;2.83;1.00;;;;;;;;;;4961076;28;20066;-81
2023/10/15 05:09:09;;;;;;;1.63;1.10;;;;;;;;;;4961076;28;20023;-82
2023/10/15 05:11:35;;;;;;;1.15;0.98;;;;;;;;;;4961495;28;20031;-81
2023/10/15 05:14:02;;;;;;;0.70;0.60;;;;;;;;;;4962136;28;20023;-80
2023/10/15 05:16:29;;;;;;;0.88;0.70;;;;;;;;;;4964504;28;20369;-82
2023/10/15 05:18:58;;;;;;;0.90;0.70;;;;;;;;;;4966819;28;20023;-84
2023/10/15 05:21:25;;;;;;;0.85;0.70;;;;;;;;;;4967252;28;20030;-83
2023/10/15 05:23:51;;;;;;;0.80;0.80;;;;;;;;;;4963151;28;20031;-80
2023/10/15 05:26:19;;;;;;;1.48;1.17;;;;;;;;;;4962103;28;20485;-79
2023/10/15 05:28:47;;;;;;;1.20;0.90;;;;;;;;;;4963988;28;20057;-82
2023/10/15 05:31:13;;;;;;;1.35;1.08;;;;;;;;;;4969850;28;20055;-83
2023/10/15 05:33:39;;;;;;;1.23;0.90;;;;;;;;;;4970784;28;20042;-82
2023/10/15 05:36:06;;;;;;;0.77;0.70;;;;;;;;;;4966059;28;20030;-81
2023/10/15 05:38:32;;;;;;;1.30;1.00;;;;;;;;;;4965550;28;20026;-81
2023/10/15 05:40:59;;;;;;;1.75;1.13;;;;;;;;;;4965354;28;20027;-81
2023/10/15 05:43:25;;;;;;;1.05;0.80;;;;;;;;;;4966131;28;20056;-81
2023/10/15 05:45:52;;;;;;;1.02;0.80;;;;;;;;;;4966701;28;20027;-83
2023/10/15 05:48:18;;;;;;;1.35;0.85;;;;;;;;;;4942802;29;20036;-82
2023/10/15 05:50:50;;;;;;;1.00;0.70;;;;;;;;;;4942192;29;20039;-80
2023/10/15 05:53:16;;;;;;;0.70;0.70;;;;;;;;;;4942610;29;20028;-81
2023/10/15 05:55:43;;;;;;;1.48;0.98;;;;;;;;;;4944579;29;20035;-83
2023/10/15 05:58:09;;;;;;;1.15;0.88;;;;;;;;;;4949606;29;20075;-84
2023/10/15 06:00:45;;;;;;;0.88;0.70;;;;;;;;;;4944785;29;20588;-80
2023/10/15 06:03:11;;;;;;;0.95;0.70;;;;;;;;;;4940057;29;20054;-82
2023/10/15 06:05:37;;;;;;;1.05;0.75;;;;;;;;;;4940486;29;20051;-81
2023/10/15 06:08:04;;;;;;;0.80;0.70;;;;;;;;;;4940898;29;20039;-81
2023/10/15 06:10:32;;;;;;;1.48;1.00;;;;;;;;;;4940779;29;20087;-81
2023/10/15 06:12:58;;;;;;;0.75;0.70;;;;;;;;;;4941868;29;20426;-81
2023/10/15 06:15:26;;;;;;;0.73;0.73;;;;;;;;;;4941339;29;20028;-83
2023/10/15 06:17:52;;;;;;;1.27;0.95;;;;;;;;;;4940332;29;20034;-80
2023/10/15 06:20:18;;;;;;;0.95;0.70;;;;;;;;;;4962281;28;20055;-83
2023/10/15 06:22:49;;;;;;;1.27;1.00;;;;;;;;;;4964088;28;20109;-81
2023/10/15 06:25:19;;;;;;;1.23;0.90;;;;;;;;;;4963896;28;20027;-82
2023/10/15 06:27:45;;;;;;;0.93;0.73;;;;;;;;;;4940015;29;20043;-82
2023/10/15 06:30:15;;;;;;;2.15;0.90;;;;;;;;;;4923566;29;20047;-80
2023/10/15 06:32:45;;;;;;;1.55;1.15;;;;;;;;;;4923437;29;20035;-80
2023/10/15 06:35:18;;;;;;;0.82;0.70;;;;;;;;;;4923084;29;20031;-80
2023/10/15 06:37:44;;;;;;;;;;;;;;;;;;4924688;29;20078;-81
2023/10/15 06:40:10;;;;;;;1.67;1.05;;;;;;;;;;4940246;29;19906;-81
2023/10/15 06:42:36;;;;;;;1.08;0.82;;;;;;;;;;4924669;29;20056;-81
2023/10/15 06:45:06;;;;;;;1.67;1.00;;;;;;;;;;4927448;29;20090;-83
2023/10/15 06:47:33;;;;;;;0.80;0.68;;;;;;;;;;4927663;29;20123;-82
2023/10/15 06:49:59;;;;;;;1.58;1.00;;;;;;;;;;4926261;29;20130;-80
2023/10/15 06:52:25;;;;;;;1.05;0.95;;;;;;;;;;4927798;29;20019;-80
2023/10/15 06:54:51;;;;;;;3.42;1.20;;;;;;;;;;4929072;29;20028;-82
2023/10/15 06:57:18;;;;;;;1.85;1.00;;;;;;;;;;4930090;29;20035;-82
2023/10/15 06:59:44;;;;;;;1.35;0.82;;;;;;;;;;4968185;28;20042;-84
2023/10/15 07:02:10;;;;;;;1.45;1.02;;;;;;;;;;4975682;28;20063;-82
2023/10/15 07:04:36;;;;;;;1.30;1.02;;;;;;;;;;4968505;28;20027;-82
2023/10/15 07:07:03;;;;;;;1.60;1.13;;;;;;;;;;4969685;28;20031;-81
2023/10/15 07:09:31;;;;;;;0.70;0.60;;;;;;;;;;4967739;28;20031;-82
2023/10/15 07:11:59;;;;;;;1.23;0.93;;;;;;;;;;4969084;28;20018;-84
2023/10/15 07:14:25;;;;;;;1.40;1.10;;;;;;;;;;4969725;28;20046;-82
2023/10/15 07:16:51;;;;;;;0.70;0.70;;;;;;;;;;4967891;28;20030;-81
2023/10/15 07:19:17;;;;;;;2.63;0.93;;;;;;;;;;4967549;28;20023;-83
2023/10/15 07:21:44;;;;;;;0.70;0.60;;;;;;;;;;4967524;28;20022;-83
2023/10/15 07:24:11;;;;;;;0.93;0.80;;;;;;;;;;4968193;28;20054;-82
2023/10/15 07:26:40;;;;;;;0.85;0.73;;;;;;;;;;4968271;28;20023;-85
2023/10/15 07:29:07;;;;;;;0.75;0.75;;;;;;;;;;4967820;28;20490;-84
2023/10/15 07:31:33;;;;;;;1.08;0.73;;;;;;;;;;4966726;28;20031;-85
2023/10/15 07:34:02;;;;;;;0.85;0.80;;;;;;;;;;4966438;28;20034;-84
2023/10/15 07:36:28;;;;;;;0.70;0.70;;;;;;;;;;4965093;28;20475;-81
2023/10/15 07:38:55;;;;;;;1.08;0.75;;;;;;;;;;4964316;28;20504;-81
2023/10/15 07:41:21;;;;;;;1.25;1.00;;;;;;;;;;4964781;28;20031;-81
2023/10/15 07:43:47;;;;;;;0.88;0.73;;;;;;;;;;4964588;28;20082;-80
2023/10/15 07:46:13;;;;;;;2.65;1.63;;;;;;;;;;4964123;28;20031;-83
2023/10/15 07:48:40;;;;;;;1.17;1.02;;;;;;;;;;4965387;28;20110;-85
2023/10/15 07:51:06;;;;;;;1.00;0.77;;;;;;;;;;4965251;28;20038;-81
2023/10/15 07:53:33;;;;;;;3.92;0.90;;;;;;;;;;4942815;29;20055;-83
2023/10/15 07:55:59;;;;;;;4.40;1.05;;;;;;;;;;4939256;29;20435;-84
2023/10/15 07:58:25;;;;;;;1.02;0.80;;;;;;;;;;4961321;29;20066;-82
2023/10/15 08:00:53;;;;;;;0.70;0.70;;;;;;;;;;4959102;29;20034;-81
2023/10/15 08:03:19;;;;;;;0.82;0.82;;;;;;;;;;4943688;29;20092;-83
2023/10/15 08:05:49;;;;;;;1.08;0.90;;;;;;;;;;4926586;29;20038;-80
2023/10/15 08:08:15;;;;;;;0.98;0.88;;;;;;;;;;4920303;29;20047;-79
2023/10/15 08:10:41;;;;;;;0.60;0.60;;;;;;;;;;4906178;29;20036;-81
2023/10/15 08:13:08;;;;;;;0.80;0.80;;;;;;;;;;4905318;29;20043;-82
2023/10/15 08:15:34;;;;;;;1.10;0.90;;;;;;;;;;4905803;29;20024;-79
2023/10/15 08:18:01;;;;;;;1.38;1.02;;;;;;;;;;4906499;29;20400;-80
2023/10/15 08:20:28;;;;;;;0.60;0.60;;;;;;;;;;4905079;29;20031;-81
2023/10/15 08:22:54;;;;;;;0.77;0.77;;;;;;;;;;4920934;29;20064;-81
2023/10/15 08:25:25;;;;;;;0.70;0.70;;;;;;;;;;4938774;29;20027;-81
2023/10/15 08:27:51;;;;;;;0.70;0.70;;;;;;;;;;4945936;29;20027;-82
2023/10/15 08:30:17;;;;;;;1.13;1.02;;;;;;;;;;4946464;29;20032;-81
2023/10/15 08:32:44;;;;;;;1.13;0.95;;;;;;;;;;4944790;29;20030;-82
2023/10/15 08:35:14;;;;;;;1.88;0.90;;;;;;;;;;4946347;28;20097;-80
2023/10/15 08:37:41;;;;;;;0.65;0.65;;;;;;;;;;4967867;28;20034;-83
2023/10/15 08:40:08;;;;;;;0.63;0.63;;;;;;;;;;4987037;28;20099;-81
2023/10/15 08:42:38;;;;;;;1.00;0.90;;;;;;;;;;4985267;28;20424;-83
2023/10/15 08:45:06;;;;;;;0.70;0.70;;;;;;;;;;4982093;28;20022;-81
2023/10/15 08:47:34;;;;;;;0.73;0.50;;;;;;;;;;4984052;28;20605;-81
2023/10/15 08:50:02;;;;;;;0.50;0.50;;;;;;;;;;4984909;28;20041;-81
2023/10/15 08:52:30;;;;;;;0.80;0.80;;;;;;;;;;4982773;28;20367;-83
2023/10/15 08:55:01;;;;;;;0.50;0.50;;;;;;;;;;4982441;28;20097;-83
2023/10/15 08:57:30;;;;;;;0.68;0.68;;;;;;;;;;4982495;28;20113;-81
2023/10/15 08:59:58;;;;;;;0.77;0.77;;;;;;;;;;4978219;28;20078;-84
2023/10/15 09:02:24;;;;;;;0.52;0.52;;;;;;;;;;4986341;28;20046;-81
2023/10/15 09:04:53;;;;;;;0.63;0.63;;;;;;;;;;4999047;28;20426;-81
2023/10/15 09:07:21;;;;;;;1.08;0.98;;;;;;;;;;5002910;28;20022;-84
2023/10/15 09:09:49;;;;;;;1.20;0.90;;;;;;;;;;5003668;28;20073;-83
2023/10/15 09:12:15;;;;;;;0.95;0.90;;;;;;;;;;5001311;28;20109;-81
2023/10/15 09:14:45;;;;;;;0.65;0.65;;;;;;;;;;5004614;28;20029;-81
2023/10/15 09:17:14;;;;;;;0.63;0.63;;;;;;;;;;5008866;28;20033;-80
2023/10/15 09:19:41;;;;;;;0.50;0.50;;;;;;;;;;5011107;28;20026;-80
2023/10/15 09:22:39;;;;;;;0.52;0.52;;;;;;;;;;5010626;28;20029;-85
2023/10/15 09:25:25;;;;;;;0.63;0.63;;;;;;;;;;4949480;29;20050;-84
2023/10/15 09:27:55;;;;;;;0.73;0.73;;;;;;;;;;4933385;29;20055;-82
2023/10/15 09:30:23;;;;;;;0.77;0.68;;;;;;;;;;4932495;29;20114;-82
2023/10/15 09:32:59;;;;;;;0.55;0.55;;;;;;;;;;4939174;29;20052;-84
2023/10/15 09:35:50;;;;;;;0.63;0.63;;;;;;;;;;4901779;29;20028;-82
2023/10/15 09:38:26;;;;;;;0.63;0.63;;;;;;;;;;4882462;29;20041;-80
2023/10/15 09:40:56;;;;;;;0.90;0.80;;;;;;;;;;4883062;29;20119;-81
2023/10/15 09:43:26;;;;;;;0.60;0.60;;;;;;;;;;4884070;29;20073;-83
2023/10/15 09:45:55;;;;;;;0.68;0.68;;;;;;;;;;4862499;29;20093;-79
2023/10/15 09:48:23;;;;;;;0.63;0.63;;;;;;;;;;4873461;29;20037;-80
2023/10/15 09:50:52;;;;;;;0.60;0.60;;;;;;;;;;4870193;29;20492;-79
2023/10/15 09:53:21;;;;;;;0.60;0.60;;;;;;;;;;4864617;29;20029;-79
2023/10/15 09:55:49;;;;;;;0.60;0.60;;;;;;;;;;4850086;29;20086;-80
2023/10/15 09:58:16;;;;;;;0.40;0.40;;;;;;;;;;4862028;29;20034;-81
2023/10/15 10:03:38;;;;;;;0.50;0.50;;;;;;;;;;4893749;29;20085;-83
2023/10/15 10:06:09;;;;;;;0.50;0.50;;;;;;;;;;4885288;29;20033;-83
2023/10/15 10:08:50;;;;;;;0.50;0.50;;;;;;;;;;4886705;29;20025;-82
2023/10/15 10:11:17;;;;;;;1.65;0.93;;;;;;;;;;4894013;29;20024;-83
2023/10/15 10:13:55;;;;;;;0.50;0.50;;;;;;;;;;4952799;28;20459;-82
2023/10/15 10:16:26;;;;;;;0.60;0.60;;;;;;;;;;4967112;28;20019;-83
2023/10/15 10:18:53;;;;;;;0.50;0.50;;;;;;;;;;4970801;28;20034;-84
2023/10/15 10:21:22;;;;;;;0.32;0.32;;;;;;;;;;4961462;28;20027;-85
2023/10/15 10:23:53;;;;;;;0.40;0.40;;;;;;;;;;4973113;28;20027;-84
2023/10/15 10:26:20;;;;;;;0.40;0.40;;;;;;;;;;4967242;28;20065;-83
2023/10/15 10:28:46;;;;;;;0.63;0.63;;;;;;;;;;4966397;28;20090;-83
2023/10/15 10:31:14;;;;;;;0.50;0.50;;;;;;;;;;4973342;28;20034;-83
2023/10/15 10:33:45;;;;;;;0.65;0.55;;;;;;;;;;4960998;28;20019;-83
2023/10/15 10:36:12;;;;;;;2.42;0.63;;;;;;;;;;4969945;28;20059;-83
2023/10/15 10:38:39;;;;;;;0.40;0.40;;;;;;;;;;4968838;28;20035;-82
2023/10/15 10:41:07;;;;;;;0.38;0.38;;;;;;;;;;4962429;28;20058;-84
2023/10/15 10:43:33;;;;;;;0.50;0.50;;;;;;;;;;4973988;28;20027;-85
2023/10/15 10:46:00;;;;;;;1.15;0.50;;;;;;;;;;4963283;28;20074;-85
2023/10/15 10:48:29;;;;;;;1.00;0.68;;;;;;;;;;4969076;28;20361;-87
2023/10/15 10:51:21;;;;;;;0.63;0.63;;;;;;;;;;4971296;28;20050;-85
2023/10/15 10:53:56;;;;;;;0.40;0.40;;;;;;;;;;4958235;29;20031;-84
2023/10/15 10:56:23;;;;;;;0.40;0.40;;;;;;;;;;4963397;28;20035;-84
2023/10/15 10:58:54;;;;;;;0.40;0.40;;;;;;;;;;4969973;28;20094;-85
2023/10/15 11:01:21;;;;;;;0.70;0.40;;;;;;;;;;4960662;28;20023;-84
2023/10/15 11:03:53;;;;;;;0.30;0.30;;;;;;;;;;4972349;28;20498;-83
2023/10/15 11:06:19;;;;;;;0.40;0.40;;;;;;;;;;4966917;28;20074;-84
2023/10/15 11:08:50;;;;;;;0.85;0.85;;;;;;;;;;4964261;28;20118;-83
2023/10/15 11:11:19;;;;;;;0.43;0.43;;;;;;;;;;4973667;28;20027;-86
2023/10/15 11:13:46;;;;;;;0.43;0.43;;;;;;;;;;4961254;28;20459;-82
2023/10/15 11:16:12;;;;;;;0.60;0.55;;;;;;;;;;4969552;28;20464;-83
2023/10/15 11:18:40;;;;;;;0.40;0.40;;;;;;;;;;4968723;28;20029;-85
2023/10/15 11:21:07;;;;;;;0.40;0.40;;;;;;;;;;4965837;28;20023;-83
2023/10/15 11:23:33;;;;;;;0.47;0.47;;;;;;;;;;4982373;28;20023;-83
2023/10/15 11:26:00;;;;;;;0.45;0.45;;;;;;;;;;4974893;28;20014;-85
2023/10/15 11:28:26;;;;;;;0.50;0.50;;;;;;;;;;4975371;28;20434;-83
2023/10/15 11:30:53;;;;;;;0.40;0.40;;;;;;;;;;4971763;28;20411;-82
2023/10/15 11:33:19;;;;;;;0.65;0.50;;;;;;;;;;4969932;28;20028;-83
2023/10/15 11:35:48;;;;;;;0.57;0.43;;;;;;;;;;4967721;28;20023;-85
2023/10/15 11:38:14;;;;;;;0.30;0.30;;;;;;;;;;4968887;28;20039;-84
2023/10/15 11:40:40;;;;;;;0.47;0.47;;;;;;;;;;4969025;28;20074;-85
2023/10/15 11:43:14;;;;;;;0.40;0.40;;;;;;;;;;4962453;28;20356;-81
2023/10/15 11:45:41;;;;;;;0.50;0.50;;;;;;;;;;4973307;28;20050;-82
2023/10/15 11:48:14;;;;;;;0.50;0.50;;;;;;;;;;4963109;28;20030;-84
2023/10/15 11:50:44;;;;;;;0.47;0.47;;;;;;;;;;4963728;28;20035;-82
2023/10/15 11:53:23;;;;;;;0.77;0.68;;;;;;;;;;4971084;28;20058;-82
2023/10/15 11:55:53;;;;;;;0.90;0.60;;;;;;;;;;4970608;28;20033;-84
2023/10/15 11:58:20;;;;;;;0.65;0.65;;;;;;;;;;4965452;28;20057;-83
2023/10/15 12:00:51;;;;;;;0.40;0.40;;;;;;;;;;4963509;28;20079;-85
2023/10/15 12:03:18;;;;;;;0.32;0.32;;;;;;;;;;4972210;28;20047;-85
2023/10/15 12:05:45;;;;;;;0.40;0.40;;;;;;;;;;4972222;28;20023;-81
2023/10/15 12:08:12;;;;;;;0.63;0.55;;;;;;;;;;4956293;29;20058;-83
2023/10/15 12:10:42;;;;;;;0.32;0.32;;;;;;;;;;4966988;28;20037;-84
2023/10/15 12:13:15;;;;;;;1.73;1.00;;;;;;;;;;4960173;28;20027;-85
2023/10/15 12:15:42;;;;;;;0.45;0.45;;;;;;;;;;4959347;28;20022;-85
2023/10/15 12:18:08;;;;;;;0.50;0.50;;;;;;;;;;4967882;28;20027;-86
2023/10/15 12:20:35;;;;;;;0.47;0.45;;;;;;;;;;4966244;28;20034;-83
2023/10/15 12:23:01;;;;;;;0.55;0.40;;;;;;;;;;4975233;28;20026;-84
2023/10/15 12:25:27;;;;;;;0.28;0.28;;;;;;;;;;4958851;28;20114;-83
2023/10/15 12:27:53;;;;;;;0.32;0.32;;;;;;;;;;4971211;28;20023;-84
2023/10/15 12:30:28;;;;;;;0.50;0.50;;;;;;;;;;4955340;29;20027;-82
2023/10/15 12:32:55;;;;;;;0.95;0.60;;;;;;;;;;4968439;28;20038;-84
2023/10/15 12:35:21;;;;;;;0.43;0.43;;;;;;;;;;4958865;28;20114;-85
2023/10/15 12:37:49;;;;;;;0.40;0.40;;;;;;;;;;4971121;28;20078;-85
2023/10/15 12:40:23;;;;;;;1.05;0.70;;;;;;;;;;4956954;28;20043;-84
2023/10/15 12:42:51;;;;;;;0.30;0.30;;;;;;;;;;4968927;28;20023;-83
2023/10/15 12:45:19;;;;;;;0.40;0.40;;;;;;;;;;4958516;28;20370;-85
2023/10/15 12:47:45;;;;;;;0.95;0.60;;;;;;;;;;4959437;28;20027;-86
2023/10/15 12:50:14;;;;;;;0.75;0.55;;;;;;;;;;4967641;28;20051;-85
2023/10/15 12:52:43;;;;;;;0.30;0.30;;;;;;;;;;4966799;28;20034;-85
2023/10/15 12:55:09;;;;;;;0.95;0.55;;;;;;;;;;4959695;28;20039;-84
2023/10/15 12:57:36;;;;;;;0.40;0.40;;;;;;;;;;4971796;28;20538;-87
2023/10/15 13:00:11;;;;;;;0.30;0.30;;;;;;;;;;4961652;28;20031;-85
2023/10/15 13:02:38;;;;;;;0.40;0.40;;;;;;;;;;4963382;28;20051;-87
2023/10/15 13:05:05;;;;;;;0.60;0.60;;;;;;;;;;4970021;28;20023;-84
2023/10/15 13:07:31;;;;;;;0.68;0.60;;;;;;;;;;4960149;28;20023;-81
2023/10/15 13:09:57;;;;;;;0.60;0.60;;;;;;;;;;4972230;28;20435;-81
2023/10/15 13:12:25;;;;;;;0.57;0.57;;;;;;;;;;4965985;28;20031;-83
2023/10/15 13:14:51;;;;;;;1.00;0.88;;;;;;;;;;4961386;28;20031;-84
2023/10/15 13:17:17;;;;;;;1.17;0.70;;;;;;;;;;4970711;28;20144;-86
2023/10/15 13:19:44;;;;;;;0.40;0.40;;;;;;;;;;4974727;28;20098;-84
2023/10/15 13:22:10;;;;;;;0.60;0.60;;;;;;;;;;4975602;28;20447;-84
2023/10/15 13:24:38;;;;;;;0.95;0.63;;;;;;;;;;4976243;28;20027;-84
2023/10/15 13:27:05;;;;;;;0.70;0.70;;;;;;;;;;4977087;28;20078;-84
2023/10/15 13:29:31;;;;;;;0.50;0.50;;;;;;;;;;4974241;28;20053;-81
2023/10/15 13:31:58;;;;;;;0.82;0.70;;;;;;;;;;4974006;28;20035;-85
2023/10/15 13:34:24;;;;;;;0.50;0.50;;;;;;;;;;4974126;28;20031;-85
2023/10/15 13:36:51;;;;;;;0.50;0.50;;;;;;;;;;4974295;28;20038;-84
2023/10/15 13:39:20;;;;;;;0.70;0.70;;;;;;;;;;4974446;28;20034;-86
2023/10/15 13:41:49;;;;;;;0.93;0.57;;;;;;;;;;4974685;28;20042;-84
2023/10/15 13:44:16;;;;;;;0.82;0.63;;;;;;;;;;4975154;28;20019;-85
2023/10/15 13:46:45;;;;;;;0.50;0.50;;;;;;;;;;4974777;28;20029;-84
2023/10/15 13:49:17;;;;;;;0.55;0.55;;;;;;;;;;4982491;28;20015;-85
2023/10/15 13:51:43;;;;;;;1.13;0.75;;;;;;;;;;4985956;28;20062;-87
2023/10/15 13:54:09;;;;;;;1.08;0.75;;;;;;;;;;4978961;28;20113;-83
2023/10/15 13:56:35;;;;;;;0.93;0.77;;;;;;;;;;4978304;28;20027;-82
2023/10/15 13:59:01;;;;;;;0.43;0.43;;;;;;;;;;4977898;28;20031;-83
2023/10/15 14:01:27;;;;;;;0.73;0.70;;;;;;;;;;4979219;28;20030;-84
2023/10/15 14:03:54;;;;;;;1.20;0.82;;;;;;;;;;4977971;28;20046;-84
2023/10/15 14:06:20;;;;;;;0.45;0.45;;;;;;;;;;4977678;28;20023;-84
2023/10/15 14:08:46;;;;;;;0.75;0.73;;;;;;;;;;4977692;28;20027;-84
2023/10/15 14:11:13;;;;;;;0.50;0.50;;;;;;;;;;4977761;28;20129;-84
2023/10/15 14:13:39;;;;;;;0.50;0.50;;;;;;;;;;4980307;28;20049;-85
2023/10/15 14:16:06;;;;;;;1.05;0.80;;;;;;;;;;4979962;28;20029;-82
2023/10/15 14:18:33;;;;;;;0.70;0.70;;;;;;;;;;4979512;28;20027;-82
2023/10/15 14:20:59;;;;;;;0.73;0.73;;;;;;;;;;4978755;28;20033;-84
2023/10/15 14:23:27;;;;;;;1.38;0.80;;;;;;;;;;4977730;28;20061;-82
2023/10/15 14:25:53;;;;;;;0.70;0.70;;;;;;;;;;4977727;28;20027;-82
2023/10/15 14:28:20;;;;;;;0.52;0.52;;;;;;;;;;4979092;28;20046;-85
2023/10/15 14:30:46;;;;;;;0.63;0.63;;;;;;;;;;4977823;28;20023;-81
2023/10/15 14:33:12;;;;;;;0.80;0.80;;;;;;;;;;4978339;28;20023;-82
2023/10/15 14:35:40;;;;;;;0.60;0.60;;;;;;;;;;4978531;28;20506;-80
2023/10/15 14:38:09;;;;;;;1.05;0.90;;;;;;;;;;4979448;28;20103;-78
2023/10/15 14:40:38;;;;;;;1.00;0.88;;;538.00;2406.40;;;;;;4978813;28;20030;-81
2023/10/15 14:43:03;;;;;;;0.70;0.70;;;537.80;2406.40;;;;;;4978595;28;20027;-83
2023/10/15 14:45:30;;;;;;;0.60;0.60;;;537.80;2406.40;;;;;;4982789;28;20391;-82
2023/10/15 14:47:56;;;;;;;1.27;0.95;;;537.60;2406.40;;;;;;4977505;28;20031;-84
2023/10/15 14:50:23;;;;;;;0.70;0.70;;;512.90;2380.80;;;;;;4963131;28;20493;-83
2023/10/15 14:52:56;;;;;;;0.60;0.60;;;512.90;2380.80;;;;;;4979137;28;20173;-84
2023/10/15 14:55:22;;;;;;;1.42;1.10;;;512.90;2380.80;;;;;;4977971;28;20047;-79
2023/10/15 14:57:51;;;;;;;0.68;0.68;;;512.90;2380.80;;;;;;4967586;28;20026;-79